Terminal Aerodrome Forecast
Issued by NWS Charleston, WV

Home | Current Version | Previous Version | Text Only | Print | Product List | Glossary On
Versions: 1 2 3 4 5 6 7 8 9 10 11 12 13 14 15 16 17 18 19 20 21 22 23
411
FTUS41 KRLX 131752
TAFCRW
TAF
KCRW 131752Z 1318/1418 31012G22KT P6SM BKN035
     FM132100 30009KT P6SM SCT040
     FM140100 VRB03KT P6SM SKC
     FM141100 VRB03KT P6SM BKN250
     FM141700 12003KT P6SM BKN100=

USA.gov is the U.S. government's official web portal to all federal, state and local government web resources and services.